createdAt,value
2023-04-15T00:00:58.781Z,89588.75
2023-04-15T00:03:25.973Z,89593.41
2023-04-15T00:05:52.961Z,89585.03
2023-04-15T00:08:20.005Z,89591.13
2023-04-15T00:10:46.870Z,89594.16
2023-04-15T00:13:13.774Z,89593.81
2023-04-15T00:15:41.394Z,89594.41
2023-04-15T00:18:08.410Z,89599.88
2023-04-15T00:20:35.849Z,89605.88
2023-04-15T00:23:03.318Z,89600.81
2023-04-15T00:25:30.066Z,89606.34
2023-04-15T00:27:56.794Z,89609.06
2023-04-15T00:30:23.684Z,89601.94
2023-04-15T00:32:50.585Z,89612.44
2023-04-15T00:35:17.486Z,89608.88
2023-04-15T00:37:46.005Z,89606.19
2023-04-15T00:40:13.819Z,89606.94
2023-04-15T00:42:41.139Z,89611.06
2023-04-15T00:45:08.523Z,89611.41
2023-04-15T00:47:36.610Z,89614.91
2023-04-15T00:50:04.034Z,89619.94
2023-04-15T00:52:31.243Z,89612.34
2023-04-15T00:54:58.150Z,89614.88
2023-04-15T00:57:25.072Z,89621.28
2023-04-15T00:59:53.344Z,89622.47
2023-04-15T01:02:20.476Z,89621.63
2023-04-15T01:04:47.392Z,89623.09
2023-04-15T01:07:14.569Z,89616.13
2023-04-15T01:09:42.266Z,89622.25
2023-04-15T01:12:14.203Z,89614.88
2023-04-15T01:14:41.428Z,89620.06
2023-04-15T01:17:08.211Z,89618.06
2023-04-15T01:19:36.976Z,89618.75
2023-04-15T01:22:04.322Z,89611.84
2023-04-15T01:24:32.710Z,89610.44
2023-04-15T01:26:59.649Z,89606.66
2023-04-15T01:29:26.541Z,89608.69
2023-04-15T01:31:55.170Z,89613.31
2023-04-15T01:34:22.327Z,89615.13
2023-04-15T01:36:49.372Z,89613.81
2023-04-15T01:39:16.197Z,89612.63
2023-04-15T01:41:42.980Z,89615.56
2023-04-15T01:44:09.905Z,89616.75
2023-04-15T01:46:36.830Z,89623.34
2023-04-15T01:49:03.729Z,89621.88
2023-04-15T01:51:30.751Z,89621.41
2023-04-15T01:53:57.592Z,89620.94
2023-04-15T01:56:24.513Z,89625.53
2023-04-15T01:58:51.655Z,89629.38
2023-04-15T02:01:18.789Z,89629.91
2023-04-15T02:03:46.273Z,89622.94
2023-04-15T02:06:13.333Z,89627.34
2023-04-15T02:08:40.200Z,89626.88
2023-04-15T02:11:07.039Z,89630.53
2023-04-15T02:13:33.961Z,89629.06
2023-04-15T02:16:00.757Z,89626.94
2023-04-15T02:18:27.557Z,89633.72
2023-04-15T02:20:54.611Z,89626.47
2023-04-15T02:23:21.423Z,89632.53
2023-04-15T02:25:53.754Z,89632.09
2023-04-15T02:28:22.095Z,89623.34
2023-04-15T02:30:49.715Z,89632.25
2023-04-15T02:33:16.599Z,89625.13
2023-04-15T02:35:43.459Z,89630.16
2023-04-15T02:38:10.268Z,89632.03
2023-04-15T02:40:37.370Z,89639.34
2023-04-15T02:43:04.202Z,89649.59
2023-04-15T02:45:31.039Z,89644.28
2023-04-15T02:47:57.942Z,89643.47
2023-04-15T02:50:24.920Z,89635.47
2023-04-15T02:52:51.845Z,89636.75
2023-04-15T02:55:18.725Z,89633.38
2023-04-15T02:57:45.554Z,89633.56
2023-04-15T03:00:13.003Z,89634.84
2023-04-15T03:02:40.395Z,89635.09
2023-04-15T03:05:08.021Z,89630.31
2023-04-15T03:07:34.883Z,89633.88
2023-04-15T03:10:01.689Z,89643.28
2023-04-15T03:12:28.652Z,89638.06
2023-04-15T03:14:55.435Z,89640.44
2023-04-15T03:17:22.286Z,89644.66
2023-04-15T03:19:49.215Z,89642.16
2023-04-15T03:22:16.018Z,89646.41
2023-04-15T03:24:42.922Z,89644.19
2023-04-15T03:27:09.875Z,89643.66
2023-04-15T03:29:36.767Z,89645.94
2023-04-15T03:32:03.776Z,89641.63
2023-04-15T03:34:30.673Z,89650.53
2023-04-15T03:36:57.437Z,89648.50
2023-04-15T03:39:24.240Z,89653.28
2023-04-15T03:41:51.095Z,89656.84
2023-04-15T03:44:17.916Z,89648.69
2023-04-15T03:46:44.840Z,89653.53
2023-04-15T03:49:11.835Z,89652.81
2023-04-15T03:51:38.654Z,89662.25
2023-04-15T03:54:05.480Z,89670.59
2023-04-15T03:56:32.396Z,89664.16
2023-04-15T03:58:59.266Z,89666.81
2023-04-15T04:01:26.253Z,89668.22
2023-04-15T04:03:53.278Z,89668.38
2023-04-15T04:06:20.355Z,89670.84
2023-04-15T04:08:47.142Z,89666.94
2023-04-15T04:11:14.025Z,89673.28
2023-04-15T04:13:41.020Z,89672.50
2023-04-15T04:16:07.927Z,89668.25
2023-04-15T04:18:34.991Z,89673.09
2023-04-15T04:21:02.298Z,89672.44
2023-04-15T04:23:29.362Z,89681.69
2023-04-15T04:25:56.239Z,89682.09
2023-04-15T04:28:23.076Z,89685.25
2023-04-15T04:30:49.961Z,89688.06
2023-04-15T04:33:16.892Z,89687.50
2023-04-15T04:35:43.614Z,89680.19
2023-04-15T04:38:10.434Z,89687.75
2023-04-15T04:40:37.431Z,89693.78
2023-04-15T04:43:04.260Z,89691.38
2023-04-15T04:45:31.157Z,89686.72
2023-04-15T04:47:58.049Z,89697.94
2023-04-15T04:50:24.896Z,89696.34
2023-04-15T04:52:51.674Z,89696.44
2023-04-15T04:55:18.653Z,89699.16
2023-04-15T04:57:45.677Z,89705.69
2023-04-15T05:00:12.981Z,89705.38
2023-04-15T05:02:40.029Z,89698.13
2023-04-15T05:05:07.379Z,89704.28
2023-04-15T05:07:34.311Z,89699.66
2023-04-15T05:10:01.419Z,89698.25
2023-04-15T05:12:28.321Z,89706.56
2023-04-15T05:14:55.155Z,89713.13
2023-04-15T05:17:22.751Z,89711.91
2023-04-15T05:19:49.623Z,89718.00
2023-04-15T05:22:16.501Z,89712.59
2023-04-15T05:24:43.425Z,89715.69
2023-04-15T05:27:10.200Z,89713.84
2023-04-15T05:29:37.024Z,89704.16
2023-04-15T05:32:04.034Z,89704.91
2023-04-15T05:34:30.870Z,89719.41
2023-04-15T05:36:57.769Z,89708.75
2023-04-15T05:39:24.567Z,89713.63
2023-04-15T05:41:51.408Z,89721.16
2023-04-15T05:44:18.254Z,89714.09
2023-04-15T05:46:45.123Z,89723.34
2023-04-15T05:49:12.010Z,89726.78
2023-04-15T05:51:38.787Z,89721.66
2023-04-15T05:54:05.638Z,89718.47
2023-04-15T05:56:32.463Z,89722.28
2023-04-15T05:58:59.662Z,89726.31
2023-04-15T06:01:26.716Z,89730.13
2023-04-15T06:03:53.752Z,89726.44
2023-04-15T06:06:20.706Z,89728.59
2023-04-15T06:08:47.732Z,89727.31
2023-04-15T06:11:14.905Z,89732.28
2023-04-15T06:13:41.764Z,89731.16
2023-04-15T06:16:08.786Z,89739.22
2023-04-15T06:18:35.725Z,89742.34
2023-04-15T06:21:02.585Z,89745.66
2023-04-15T06:23:29.715Z,89738.38
2023-04-15T06:25:56.512Z,89734.69
2023-04-15T06:28:23.389Z,89735.31
2023-04-15T06:30:50.376Z,89732.69
2023-04-15T06:33:17.294Z,89741.41
2023-04-15T06:35:44.134Z,89736.63
2023-04-15T06:38:10.982Z,89743.25
2023-04-15T06:40:37.898Z,89734.28
2023-04-15T06:43:08.771Z,89736.41
2023-04-15T06:45:35.655Z,89738.13
2023-04-15T06:48:02.446Z,89737.56
2023-04-15T06:50:29.416Z,89732.53
2023-04-15T06:52:59.242Z,89731.66
2023-04-15T06:55:26.174Z,89741.66
2023-04-15T06:57:52.993Z,89733.56
2023-04-15T07:00:19.985Z,89739.00
2023-04-15T07:02:47.044Z,89739.94
2023-04-15T07:05:14.860Z,89742.31
2023-04-15T07:07:41.904Z,89736.03
2023-04-15T07:10:09.278Z,89743.03
2023-04-15T07:12:36.097Z,89744.38
2023-04-15T07:15:03.287Z,89740.06
2023-04-15T07:17:30.256Z,89746.56
2023-04-15T07:19:57.218Z,89750.09
2023-04-15T07:22:24.297Z,89743.69
2023-04-15T07:24:53.763Z,89744.69
2023-04-15T07:27:20.627Z,89736.59
2023-04-15T07:29:47.706Z,89739.41
2023-04-15T07:32:14.576Z,89739.63
2023-04-15T07:34:41.461Z,89740.03
2023-04-15T07:37:08.492Z,89740.06
2023-04-15T07:39:35.413Z,89743.88
2023-04-15T07:42:02.545Z,89737.16
2023-04-15T07:44:29.563Z,89738.84
2023-04-15T07:46:57.468Z,89733.22
2023-04-15T07:49:24.487Z,89734.69
2023-04-15T07:51:51.334Z,89742.81
2023-04-15T07:54:18.183Z,89733.72
2023-04-15T07:56:45.043Z,89740.91
2023-04-15T07:59:11.898Z,89739.72
2023-04-15T08:01:39.843Z,89733.97
2023-04-15T08:04:06.874Z,89739.00
2023-04-15T08:06:33.852Z,89731.50
2023-04-15T08:09:01.015Z,89735.47
2023-04-15T08:11:29.649Z,89728.53
2023-04-15T08:13:56.536Z,89743.38
2023-04-15T08:16:25.224Z,89738.53
2023-04-15T08:18:55.385Z,89731.84
2023-04-15T08:21:22.426Z,89730.38
2023-04-15T08:23:51.132Z,89734.84
2023-04-15T08:26:18.931Z,89732.00
2023-04-15T08:28:46.662Z,89734.59
2023-04-15T08:31:15.628Z,89731.84
2023-04-15T08:33:42.716Z,89727.91
2023-04-15T08:36:09.753Z,89710.00
2023-04-15T08:38:36.669Z,89715.19
2023-04-15T08:41:12.091Z,89731.50
2023-04-15T08:43:59.193Z,89724.69
2023-04-15T08:46:26.966Z,89721.31
2023-04-15T08:48:57.667Z,89718.34
2023-04-15T08:51:25.119Z,89722.13
2023-04-15T08:53:52.401Z,89720.66
2023-04-15T08:56:19.748Z,89717.16
2023-04-15T08:58:46.869Z,89718.59
2023-04-15T09:01:13.973Z,89713.81
2023-04-15T09:03:41.962Z,89713.66
2023-04-15T09:06:09.023Z,89711.03
2023-04-15T09:08:35.958Z,89699.00
2023-04-15T09:11:03.965Z,89695.59
2023-04-15T09:13:31.148Z,89698.25
2023-04-15T09:15:58.172Z,89698.41
2023-04-15T09:18:29.905Z,89689.34
2023-04-15T09:20:56.935Z,89692.66
2023-04-15T09:23:24.021Z,89685.81
2023-04-15T09:25:51.170Z,89691.97
2023-04-15T09:28:24.735Z,89680.19
2023-04-15T09:30:53.343Z,89685.66
2023-04-15T09:33:20.277Z,89688.50
2023-04-15T09:36:04.804Z,89692.25
2023-04-15T09:38:35.276Z,89682.09
2023-04-15T09:41:02.289Z,89679.19
2023-04-15T09:43:47.154Z,89682.19
2023-04-15T09:46:14.033Z,89675.56
2023-04-15T09:48:40.982Z,89678.34
2023-04-15T09:51:08.133Z,89678.16
2023-04-15T09:53:38.878Z,89668.75
2023-04-15T09:56:05.979Z,89679.66
2023-04-15T09:58:35.700Z,89678.38
2023-04-15T10:01:05.770Z,89677.91
2023-04-15T10:03:34.769Z,89673.72
2023-04-15T10:06:02.673Z,89671.72
2023-04-15T10:08:32.050Z,89671.63
2023-04-15T10:11:00.336Z,89670.16
2023-04-15T10:13:31.427Z,89671.50
2023-04-15T10:16:06.574Z,89675.84
2023-04-15T10:18:37.996Z,89675.06
2023-04-15T10:21:06.000Z,89665.66
2023-04-15T10:23:33.847Z,89668.56
2023-04-15T10:26:01.401Z,89671.81
2023-04-15T10:28:28.492Z,89672.69
2023-04-15T10:30:56.685Z,89672.50
2023-04-15T10:33:25.393Z,89664.53
2023-04-15T10:35:54.514Z,89666.31
2023-04-15T10:38:33.934Z,89667.78
2023-04-15T10:41:14.149Z,89660.28
2023-04-15T10:43:56.644Z,89654.88
2023-04-15T10:46:40.609Z,89651.53
2023-04-15T10:49:12.379Z,89649.03
2023-04-15T10:51:41.317Z,89640.31
2023-04-15T10:54:26.371Z,89648.31
2023-04-15T10:57:09.027Z,89640.19
2023-04-15T10:59:59.592Z,89643.63
2023-04-15T11:02:40.765Z,89640.50
2023-04-15T11:05:08.333Z,89643.25
2023-04-15T11:07:47.356Z,89630.78
2023-04-15T11:10:14.232Z,89638.59
2023-04-15T11:12:42.111Z,89638.94
2023-04-15T11:15:41.622Z,89634.41
2023-04-15T11:18:22.697Z,89619.84
2023-04-15T11:20:54.932Z,89634.47
2023-04-15T11:23:41.854Z,89631.22
2023-04-15T11:26:10.724Z,89629.31
2023-04-15T11:28:39.317Z,89618.69
2023-04-15T11:31:09.845Z,89616.00
2023-04-15T11:33:37.001Z,89622.44
2023-04-15T11:36:04.266Z,89615.47
2023-04-15T11:38:31.208Z,89619.31
2023-04-15T11:40:58.917Z,89609.84
2023-04-15T11:43:25.780Z,89600.59
2023-04-15T11:45:54.152Z,89596.50
2023-04-15T11:48:24.183Z,89604.44
2023-04-15T11:50:56.460Z,89601.56
2023-04-15T11:53:24.192Z,89603.13
2023-04-15T11:55:53.342Z,89597.25
2023-04-15T11:58:25.293Z,89596.66
2023-04-15T12:00:54.696Z,89600.31
2023-04-15T12:03:39.618Z,89589.41
2023-04-15T12:06:07.870Z,89590.16
2023-04-15T12:08:56.497Z,89592.56
2023-04-15T12:11:51.404Z,89585.59
2023-04-15T12:14:29.399Z,89584.53
2023-04-15T12:17:04.422Z,89584.72
2023-04-15T12:19:42.368Z,89583.63
2023-04-15T12:22:11.761Z,89576.53
2023-04-15T12:24:39.642Z,89571.41
2023-04-15T12:27:12.118Z,89579.66
2023-04-15T12:29:40.657Z,89574.63
2023-04-15T12:32:16.343Z,89569.41
2023-04-15T12:34:53.638Z,89571.56
2023-04-15T12:37:21.078Z,89573.63
2023-04-15T12:39:49.548Z,89568.44
2023-04-15T12:42:17.597Z,89566.00
2023-04-15T12:44:45.063Z,89561.63
2023-04-15T12:47:12.763Z,89556.38
2023-04-15T12:49:40.026Z,89563.44
2023-04-15T12:52:07.380Z,89559.78
2023-04-15T12:54:34.301Z,89552.16
2023-04-15T12:57:01.248Z,89560.00
2023-04-15T12:59:29.027Z,89545.03
2023-04-15T13:01:56.023Z,89552.97
2023-04-15T13:04:23.211Z,89545.28
2023-04-15T13:06:50.683Z,89544.94
2023-04-15T13:09:17.768Z,89544.25
2023-04-15T13:11:44.796Z,89546.22
2023-04-15T13:14:11.927Z,89546.91
2023-04-15T13:16:39.013Z,89540.34
2023-04-15T13:19:06.019Z,89531.44
2023-04-15T13:21:33.289Z,89537.25
2023-04-15T13:24:00.201Z,89534.47
2023-04-15T13:26:27.074Z,89531.34
2023-04-15T13:28:54.088Z,89546.28
2023-04-15T13:31:20.951Z,89539.09
2023-04-15T13:33:47.909Z,89537.09
2023-04-15T13:36:14.808Z,89533.00
2023-04-15T13:38:41.716Z,89541.63
2023-04-15T13:41:08.578Z,89535.47
2023-04-15T13:43:36.176Z,89532.22
2023-04-15T13:46:03.307Z,89534.41
2023-04-15T13:48:30.238Z,89532.22
2023-04-15T13:50:57.295Z,89525.13
2023-04-15T13:53:37.672Z,89531.44
2023-04-15T13:56:07.142Z,89529.63
2023-04-15T13:58:34.236Z,89521.63
2023-04-15T14:01:03.186Z,89524.91
2023-04-15T14:03:32.070Z,89515.88
2023-04-15T14:05:59.593Z,89527.41
2023-04-15T14:08:26.470Z,89523.59
2023-04-15T14:10:53.318Z,89524.25
2023-04-15T14:13:20.130Z,89523.19
2023-04-15T14:15:47.401Z,89519.47
2023-04-15T14:18:14.716Z,89518.75
2023-04-15T14:20:41.618Z,89520.06
2023-04-15T14:23:08.537Z,89516.63
2023-04-15T14:25:35.693Z,89513.50
2023-04-15T14:28:02.854Z,89519.59
2023-04-15T14:30:32.748Z,89521.25
2023-04-15T14:32:59.739Z,89513.81
2023-04-15T14:35:28.963Z,89508.06
2023-04-15T14:37:55.829Z,89515.44
2023-04-15T14:40:23.094Z,89519.28
2023-04-15T14:42:50.087Z,89515.75
2023-04-15T14:45:16.957Z,89517.94
2023-04-15T14:47:44.200Z,89520.81
2023-04-15T14:50:11.172Z,89526.25
2023-04-15T14:52:38.026Z,89523.88
2023-04-15T14:55:09.804Z,89511.53
2023-04-15T14:57:37.909Z,89528.69
2023-04-15T15:00:06.108Z,89513.16
2023-04-15T15:02:39.119Z,89513.69
2023-04-15T15:05:08.096Z,89529.78
2023-04-15T15:07:35.440Z,89518.00
2023-04-15T15:10:02.488Z,89516.06
2023-04-15T15:12:29.392Z,89513.47
2023-04-15T15:14:59.439Z,89511.56
2023-04-15T15:17:26.694Z,89515.47
2023-04-15T15:19:53.509Z,89518.91
2023-04-15T15:22:21.462Z,89509.03
2023-04-15T15:24:48.582Z,89508.00
2023-04-15T15:27:15.469Z,89504.56
2023-04-15T15:29:42.350Z,89511.00
2023-04-15T15:32:09.225Z,89502.06
2023-04-15T15:34:36.183Z,89501.34
2023-04-15T15:37:03.162Z,89501.84
2023-04-15T15:39:30.051Z,89505.91
2023-04-15T15:41:56.851Z,89503.75
2023-04-15T15:44:23.830Z,89503.44
2023-04-15T15:46:50.967Z,89501.28
2023-04-15T15:49:18.131Z,89497.88
2023-04-15T15:51:45.080Z,89497.72
2023-04-15T15:54:11.872Z,89500.09
2023-04-15T15:56:38.682Z,89494.31
2023-04-15T15:59:05.852Z,89504.41
2023-04-15T16:01:32.944Z,89504.53
2023-04-15T16:03:59.959Z,89502.66
2023-04-15T16:06:26.894Z,89502.81
2023-04-15T16:08:53.761Z,89500.38
2023-04-15T16:11:20.630Z,89501.06
2023-04-15T16:13:47.521Z,89507.84
2023-04-15T16:16:14.480Z,89500.75
2023-04-15T16:18:41.369Z,89508.41
2023-04-15T16:21:09.132Z,89511.84
2023-04-15T16:23:37.002Z,89514.34
2023-04-15T16:26:03.889Z,89512.09
2023-04-15T16:28:30.886Z,89516.19
2023-04-15T16:30:57.702Z,89517.34
2023-04-15T16:33:29.703Z,89520.81
2023-04-15T16:35:56.601Z,89511.00
2023-04-15T16:38:23.382Z,89512.50
2023-04-15T16:40:50.250Z,89514.38
2023-04-15T16:43:17.242Z,89522.78
2023-04-15T16:45:44.124Z,89519.47
2023-04-15T16:48:11.001Z,89515.22
2023-04-15T16:50:37.948Z,89517.41
2023-04-15T16:53:04.788Z,89513.34
2023-04-15T16:55:31.676Z,89525.19
2023-04-15T16:58:03.313Z,89524.88
2023-04-15T17:00:32.091Z,89525.59
2023-04-15T17:03:00.440Z,89528.91
2023-04-15T17:05:27.771Z,89531.41
2023-04-15T17:07:55.383Z,89533.97
2023-04-15T17:10:23.037Z,89541.84
2023-04-15T17:12:49.900Z,89542.34
2023-04-15T17:15:16.781Z,89538.53
2023-04-15T17:17:43.716Z,89546.03
2023-04-15T17:20:11.494Z,89541.09
2023-04-15T17:22:38.523Z,89548.97
2023-04-15T17:25:06.169Z,89557.41
2023-04-15T17:27:33.130Z,89552.22
2023-04-15T17:29:59.964Z,89573.03
2023-04-15T17:32:26.940Z,89573.09
2023-04-15T17:34:53.832Z,89566.38
2023-04-15T17:37:20.728Z,89576.91
2023-04-15T17:39:47.597Z,89579.09
2023-04-15T17:42:14.484Z,89584.63
2023-04-15T17:44:41.486Z,89588.91
2023-04-15T17:47:08.505Z,89583.97
2023-04-15T17:49:35.424Z,89589.44
2023-04-15T17:52:02.594Z,89596.59
2023-04-15T17:54:29.501Z,89596.81
2023-04-15T17:56:57.202Z,89595.06
2023-04-15T17:59:24.406Z,89594.75
2023-04-15T18:01:51.503Z,89590.78
2023-04-15T18:04:18.336Z,89593.09
2023-04-15T18:06:45.478Z,89587.78
2023-04-15T18:09:12.443Z,89590.03
2023-04-15T18:11:39.280Z,89595.56
2023-04-15T18:14:06.635Z,89595.56
2023-04-15T18:16:33.994Z,89596.94
2023-04-15T18:19:00.997Z,89598.13
2023-04-15T18:21:27.897Z,89606.34
2023-04-15T18:23:54.905Z,89598.28
2023-04-15T18:26:21.763Z,89600.47
2023-04-15T18:28:48.756Z,89606.34
2023-04-15T18:31:15.874Z,89595.06
2023-04-15T18:33:42.705Z,89590.69
2023-04-15T18:36:10.440Z,89600.72
2023-04-15T18:38:37.552Z,89596.38
2023-04-15T18:41:04.542Z,89596.16
2023-04-15T18:43:31.849Z,89595.34
2023-04-15T18:46:00.054Z,89602.91
2023-04-15T18:48:27.262Z,89601.97
2023-04-15T18:50:54.328Z,89590.91
2023-04-15T18:53:21.783Z,89589.97
2023-04-15T18:55:48.832Z,89597.59
2023-04-15T18:58:15.806Z,89591.78
2023-04-15T19:00:43.113Z,89591.00
2023-04-15T19:03:10.698Z,89591.94
2023-04-15T19:05:37.596Z,89600.72
2023-04-15T19:08:04.619Z,89600.44
2023-04-15T19:10:31.569Z,89600.66
2023-04-15T19:12:58.412Z,89602.13
2023-04-15T19:15:25.300Z,89595.56
2023-04-15T19:17:52.112Z,89594.25
2023-04-15T19:20:19.010Z,89595.47
2023-04-15T19:22:46.349Z,89586.09
2023-04-15T19:25:13.392Z,89593.22
2023-04-15T19:27:40.265Z,89589.56
2023-04-15T19:30:08.197Z,89593.94
2023-04-15T19:32:35.890Z,89590.28
2023-04-15T19:35:02.805Z,89586.13
2023-04-15T19:37:32.678Z,89581.06
2023-04-15T19:39:59.622Z,89577.69
2023-04-15T19:42:26.700Z,89584.13
2023-04-15T19:44:53.589Z,89577.25
2023-04-15T19:47:20.596Z,89587.16
2023-04-15T19:49:47.448Z,89583.72
2023-04-15T19:52:14.397Z,89587.88
2023-04-15T19:54:44.373Z,89585.19
2023-04-15T19:57:11.322Z,89581.00
2023-04-15T19:59:38.238Z,89580.94
2023-04-15T20:02:05.335Z,89576.56
2023-04-15T20:04:35.027Z,89573.66
2023-04-15T20:07:01.931Z,89576.28
2023-04-15T20:09:28.758Z,89581.41
2023-04-15T20:12:47.866Z,89579.94
2023-04-15T20:14:42.514Z,89578.25
2023-04-15T20:17:09.706Z,89576.28
2023-04-15T20:19:36.550Z,89578.72
2023-04-15T20:22:03.422Z,89575.00
2023-04-15T20:24:30.234Z,89576.22
2023-04-15T20:26:57.042Z,89581.09
2023-04-15T20:29:23.880Z,89577.25
2023-04-15T20:31:50.741Z,89576.78
2023-04-15T20:34:17.587Z,89580.44
2023-04-15T20:36:44.525Z,89573.09
2023-04-15T20:39:11.366Z,89575.78
2023-04-15T20:41:38.974Z,89581.13
2023-04-15T20:44:08.769Z,89572.03
2023-04-15T20:46:35.613Z,89571.31
2023-04-15T20:49:02.509Z,89574.84
2023-04-15T20:51:29.441Z,89569.84
2023-04-15T20:53:56.300Z,89581.88
2023-04-15T20:56:23.147Z,89576.84
2023-04-15T20:58:50.082Z,89568.91
2023-04-15T21:01:16.968Z,89571.06
2023-04-15T21:03:43.931Z,89570.53
2023-04-15T21:06:10.900Z,89576.34
2023-04-15T21:08:37.681Z,89579.50
2023-04-15T21:11:04.500Z,89578.50
2023-04-15T21:13:31.484Z,89578.25
2023-04-15T21:15:58.343Z,89575.84
2023-04-15T21:18:25.163Z,89574.50
2023-04-15T21:20:59.652Z,89577.97
2023-04-15T21:23:27.927Z,89561.47
2023-04-15T21:25:54.833Z,89572.69
2023-04-15T21:28:22.186Z,89577.75
2023-04-15T21:30:49.609Z,89566.00
2023-04-15T21:33:16.565Z,89571.38
2023-04-15T21:35:43.454Z,89567.97
2023-04-15T21:38:10.226Z,89567.25
2023-04-15T21:40:37.080Z,89569.41
2023-04-15T21:43:03.981Z,89571.56
2023-04-15T21:45:31.019Z,89578.00
2023-04-15T21:48:07.462Z,89572.47
2023-04-15T21:50:39.143Z,89569.63
2023-04-15T21:53:08.591Z,89572.50
2023-04-15T21:55:36.000Z,89564.34
2023-04-15T21:58:02.901Z,89562.44
2023-04-15T22:00:30.185Z,89561.75
2023-04-15T22:02:57.289Z,89560.78
2023-04-15T22:05:25.557Z,89561.97
2023-04-15T22:07:52.395Z,89559.78
2023-04-15T22:10:19.405Z,89558.50
2023-04-15T22:12:46.276Z,89549.69
2023-04-15T22:15:13.139Z,89546.50
2023-04-15T22:17:40.149Z,89543.03
2023-04-15T22:20:07.870Z,89543.50
2023-04-15T22:22:43.940Z,89537.19
2023-04-15T22:25:11.864Z,89538.16
2023-04-15T22:27:38.813Z,89538.88
2023-04-15T22:30:06.394Z,89537.41
2023-04-15T22:32:33.366Z,89527.41
2023-04-15T22:35:02.399Z,89539.19
2023-04-15T22:37:29.355Z,89535.38
2023-04-15T22:39:56.815Z,89544.63
2023-04-15T22:42:23.860Z,89532.16
2023-04-15T22:44:51.325Z,89535.56
2023-04-15T22:47:18.879Z,89529.97
2023-04-15T22:49:45.658Z,89528.75
2023-04-15T22:52:20.144Z,89534.56
2023-04-15T22:54:54.458Z,89526.78
2023-04-15T22:57:21.326Z,89531.88
2023-04-15T22:59:48.216Z,89528.97
2023-04-15T23:02:15.246Z,89531.94
2023-04-15T23:04:42.306Z,89531.47
2023-04-15T23:07:09.165Z,89532.16
2023-04-15T23:09:36.010Z,89526.78
2023-04-15T23:12:03.233Z,89529.00
2023-04-15T23:14:30.643Z,89533.19
2023-04-15T23:16:58.280Z,89532.47
2023-04-15T23:19:25.210Z,89533.03
2023-04-15T23:21:52.078Z,89528.88
2023-04-15T23:24:19.036Z,89536.44
2023-04-15T23:26:45.869Z,89532.97
2023-04-15T23:29:12.725Z,89531.09
2023-04-15T23:31:39.925Z,89522.34
2023-04-15T23:34:06.728Z,89523.59
2023-04-15T23:36:33.625Z,89519.47
2023-04-15T23:39:00.521Z,89523.66
2023-04-15T23:41:27.491Z,89518.56
2023-04-15T23:43:54.422Z,89523.44
2023-04-15T23:46:21.353Z,89525.88
2023-04-15T23:48:48.281Z,89525.16
2023-04-15T23:51:15.215Z,89532.94
2023-04-15T23:53:42.145Z,89520.75
2023-04-15T23:56:08.992Z,89527.34
2023-04-15T23:58:35.864Z,89525.38
